createdAt,value
2023-09-25T00:01:47.252Z,101077.50
2023-09-25T00:04:27.936Z,101082.13
2023-09-25T00:07:06.026Z,101067.16
2023-09-25T00:09:39.594Z,101061.47
2023-09-25T00:12:23.431Z,101078.09
2023-09-25T00:15:05.858Z,101099.59
2023-09-25T00:17:53.114Z,101099.34
2023-09-25T00:20:33.256Z,101067.13
2023-09-25T00:23:07.433Z,101022.59
2023-09-25T00:26:06.105Z,100999.88
2023-09-25T00:28:41.020Z,101035.16
2023-09-25T00:31:31.474Z,101058.47
2023-09-25T00:34:11.357Z,101037.63
2023-09-25T00:36:42.211Z,101011.88
2023-09-25T00:39:18.975Z,101003.56
2023-09-25T00:41:59.792Z,101016.13
2023-09-25T00:44:36.969Z,101016.41
2023-09-25T00:47:27.915Z,101038.22
2023-09-25T00:50:08.786Z,101066.44
2023-09-25T00:52:49.254Z,101086.81
2023-09-25T00:55:28.556Z,101082.88
2023-09-25T00:58:05.673Z,101085.50
2023-09-25T01:00:43.267Z,101082.22
2023-09-25T01:03:27.770Z,101106.69
2023-09-25T01:06:08.636Z,101115.88
2023-09-25T01:08:45.788Z,101120.56
2023-09-25T01:11:26.573Z,101117.25
2023-09-25T01:14:00.221Z,101100.19
2023-09-25T01:16:43.537Z,101075.28
2023-09-25T01:19:22.937Z,101082.81
2023-09-25T01:22:06.979Z,101075.28
2023-09-25T01:24:45.040Z,101057.41
2023-09-25T01:27:26.447Z,101091.25
2023-09-25T01:30:13.296Z,101087.13
2023-09-25T01:32:51.594Z,101080.00
2023-09-25T01:35:26.517Z,101102.69
2023-09-25T01:38:11.764Z,101117.84
2023-09-25T01:40:46.721Z,101101.41
2023-09-25T01:43:21.757Z,101109.63
2023-09-25T01:46:02.528Z,101124.91
2023-09-25T01:48:48.923Z,101148.47
2023-09-25T01:51:25.097Z,101153.09
2023-09-25T01:54:09.868Z,101169.03
2023-09-25T01:56:50.238Z,101154.41
2023-09-25T01:59:38.841Z,101128.56
2023-09-25T02:02:19.400Z,101124.22
2023-09-25T02:04:55.116Z,101114.28
2023-09-25T02:07:31.900Z,101107.25
2023-09-25T02:10:17.489Z,101116.94
2023-09-25T02:12:56.386Z,101139.69
2023-09-25T02:15:36.917Z,101134.72
2023-09-25T02:18:15.562Z,101088.59
2023-09-25T02:20:55.057Z,101114.88
2023-09-25T02:23:36.495Z,101111.16
2023-09-25T02:26:26.709Z,101107.53
2023-09-25T02:29:03.437Z,101115.13
2023-09-25T02:31:37.953Z,101123.84
2023-09-25T02:34:27.979Z,101130.75
2023-09-25T02:36:58.757Z,101130.75
2023-09-25T02:39:34.222Z,101117.34
2023-09-25T02:42:24.439Z,101118.63
2023-09-25T02:45:02.048Z,101109.78
2023-09-25T02:47:43.054Z,101107.16
2023-09-25T02:50:30.162Z,101113.28
2023-09-25T02:53:10.981Z,101115.28
2023-09-25T02:55:42.162Z,101120.09
2023-09-25T02:58:28.427Z,101116.88
2023-09-25T03:01:06.441Z,101112.34
2023-09-25T03:03:44.346Z,101117.31
2023-09-25T03:06:26.013Z,101111.69
2023-09-25T03:09:09.801Z,101096.38
2023-09-25T03:11:45.295Z,101106.25
2023-09-25T03:14:30.097Z,101114.78
2023-09-25T03:17:16.162Z,101118.25
2023-09-25T03:19:50.655Z,101125.50
2023-09-25T03:22:32.148Z,101132.06
2023-09-25T03:25:15.068Z,101134.84
2023-09-25T03:27:54.798Z,101146.94
2023-09-25T03:30:43.821Z,101146.47
2023-09-25T03:33:24.147Z,101143.03
2023-09-25T03:36:04.856Z,101141.75
2023-09-25T03:38:39.825Z,101143.56
2023-09-25T03:41:23.436Z,101131.31
2023-09-25T03:44:06.605Z,101132.41
2023-09-25T03:46:56.096Z,101123.59
2023-09-25T03:49:35.100Z,101110.84
2023-09-25T03:52:16.993Z,101111.28
2023-09-25T03:54:53.679Z,101126.81
2023-09-25T03:57:31.858Z,101124.38
2023-09-25T04:00:15.242Z,101136.44
2023-09-25T04:03:17.254Z,101147.59
2023-09-25T04:05:55.614Z,101131.69
2023-09-25T04:11:37.260Z,101122.59
2023-09-25T04:14:13.760Z,101096.19
2023-09-25T04:16:54.156Z,101099.84
2023-09-25T04:19:40.540Z,101108.66
2023-09-25T04:22:21.120Z,101122.56
2023-09-25T04:24:55.318Z,101123.56
2023-09-25T04:27:35.483Z,101104.44
2023-09-25T04:30:21.080Z,101138.34
2023-09-25T04:32:57.596Z,101139.66
2023-09-25T04:35:48.248Z,101137.97
2023-09-25T04:38:26.175Z,101135.19
2023-09-25T04:41:10.033Z,101129.50
2023-09-25T04:43:45.696Z,101156.72
2023-09-25T04:46:29.533Z,101163.78
2023-09-25T04:49:10.543Z,101162.59
2023-09-25T04:51:54.015Z,101164.09
2023-09-25T04:54:37.287Z,101163.41
2023-09-25T04:57:13.495Z,101160.72
2023-09-25T04:59:51.281Z,101156.91
2023-09-25T05:02:23.190Z,101151.56
2023-09-25T05:05:02.955Z,101149.53
2023-09-25T05:07:45.094Z,101148.53
2023-09-25T05:10:27.652Z,101160.25
2023-09-25T05:13:05.895Z,101160.47
2023-09-25T05:15:44.797Z,101175.75
2023-09-25T05:18:28.700Z,101161.00
2023-09-25T05:21:05.882Z,101167.41
2023-09-25T05:23:46.121Z,101178.06
2023-09-25T05:26:29.516Z,101177.09
2023-09-25T05:29:09.556Z,101174.94
2023-09-25T05:31:52.478Z,101178.94
2023-09-25T05:34:37.406Z,101189.50
2023-09-25T05:37:19.034Z,101196.75
2023-09-25T05:40:02.946Z,101192.34
2023-09-25T05:42:47.572Z,101184.22
2023-09-25T05:45:23.304Z,101170.94
2023-09-25T05:48:05.502Z,101167.00
2023-09-25T05:50:44.998Z,101160.19
2023-09-25T05:53:24.587Z,101152.56
2023-09-25T05:56:02.103Z,101154.56
2023-09-25T05:58:39.476Z,101153.16
2023-09-25T06:01:17.506Z,101153.94
2023-09-25T06:03:58.127Z,101154.41
2023-09-25T06:06:43.046Z,101161.47
2023-09-25T06:09:22.261Z,101168.72
2023-09-25T06:12:02.649Z,101175.06
2023-09-25T06:14:39.762Z,101168.25
2023-09-25T06:17:20.233Z,101163.03
2023-09-25T06:19:56.610Z,101148.47
2023-09-25T06:22:34.195Z,101158.22
2023-09-25T06:25:17.757Z,101164.75
2023-09-25T06:27:53.788Z,101183.84
2023-09-25T06:30:32.754Z,101178.78
2023-09-25T06:33:14.155Z,101188.72
2023-09-25T06:35:46.750Z,101204.00
2023-09-25T06:38:31.652Z,101200.47
2023-09-25T06:41:10.238Z,101217.47
2023-09-25T06:43:51.210Z,101218.78
2023-09-25T06:46:30.295Z,101226.00
2023-09-25T06:49:09.765Z,101226.00
2023-09-25T06:51:46.385Z,101237.78
2023-09-25T06:54:21.638Z,101236.63
2023-09-25T06:57:00.839Z,101230.53
2023-09-25T06:59:40.884Z,101248.59
2023-09-25T07:02:11.715Z,101247.91
2023-09-25T07:04:52.517Z,101250.72
2023-09-25T07:07:32.460Z,101262.88
2023-09-25T07:10:07.486Z,101253.13
2023-09-25T07:12:47.455Z,101255.13
2023-09-25T07:18:21.723Z,101243.06
2023-09-25T07:21:01.814Z,101253.19
2023-09-25T07:23:43.207Z,101248.47
2023-09-25T07:26:22.059Z,101256.63
2023-09-25T07:29:00.391Z,101270.22
2023-09-25T07:31:47.178Z,101267.59
2023-09-25T07:34:18.075Z,101277.06
2023-09-25T07:36:56.796Z,101274.63
2023-09-25T07:39:40.157Z,101281.38
2023-09-25T07:42:14.396Z,101292.84
2023-09-25T07:44:54.966Z,101296.94
2023-09-25T07:47:53.449Z,101306.88
2023-09-25T07:50:26.968Z,101314.22
2023-09-25T07:53:06.833Z,101322.94
2023-09-25T07:55:44.817Z,101289.59
2023-09-25T07:58:20.068Z,101328.75
2023-09-25T08:01:05.576Z,101334.69
2023-09-25T08:03:54.116Z,101322.78
2023-09-25T08:06:36.162Z,101330.56
2023-09-25T08:09:15.186Z,101340.31
2023-09-25T08:11:51.004Z,101335.69
2023-09-25T08:14:32.803Z,101324.81
2023-09-25T08:17:17.236Z,101324.50
2023-09-25T08:20:18.614Z,101324.00
2023-09-25T08:22:54.019Z,101320.97
2023-09-25T08:25:33.001Z,101319.25
2023-09-25T08:28:06.732Z,101317.03
2023-09-25T08:30:47.337Z,101320.75
2023-09-25T08:33:25.230Z,101313.78
2023-09-25T08:36:17.704Z,101313.59
2023-09-25T08:38:59.667Z,101311.19
2023-09-25T08:41:39.976Z,101312.31
2023-09-25T08:44:25.718Z,101314.41
2023-09-25T08:47:07.807Z,101303.56
2023-09-25T08:49:46.759Z,101299.41
2023-09-25T08:52:37.486Z,101307.06
2023-09-25T08:55:10.602Z,101294.56
2023-09-25T08:57:47.726Z,101298.00
2023-09-25T09:00:36.532Z,101294.47
2023-09-25T09:03:09.812Z,101282.28
2023-09-25T09:05:47.823Z,101294.88
2023-09-25T09:08:31.332Z,101287.41
2023-09-25T09:11:16.566Z,101293.28
2023-09-25T09:13:58.474Z,101298.00
2023-09-25T09:16:32.444Z,101286.38
2023-09-25T09:19:14.703Z,101283.09
2023-09-25T09:21:57.577Z,101277.84
2023-09-25T09:24:42.043Z,101271.34
2023-09-25T09:27:26.805Z,101274.13
2023-09-25T09:30:04.098Z,101268.25
2023-09-25T09:32:35.982Z,101271.63
2023-09-25T09:35:18.864Z,101270.22
2023-09-25T09:37:50.358Z,101255.69
2023-09-25T09:40:46.680Z,101268.94
2023-09-25T09:43:25.984Z,101262.09
2023-09-25T09:46:13.650Z,101256.34
2023-09-25T09:48:46.550Z,101257.06
2023-09-25T09:51:24.111Z,101254.34
2023-09-25T09:54:10.872Z,101251.19
2023-09-25T09:57:04.999Z,101247.03
2023-09-25T09:59:46.037Z,101252.69
2023-09-25T10:02:22.651Z,101255.06
2023-09-25T10:05:04.590Z,101248.00
2023-09-25T10:08:00.454Z,101249.94
2023-09-25T10:10:38.946Z,101257.31
2023-09-25T10:13:39.216Z,101260.34
2023-09-25T10:16:27.011Z,101256.28
2023-09-25T10:19:04.965Z,101249.03
2023-09-25T10:21:43.748Z,101248.00
2023-09-25T10:24:29.193Z,101244.38
2023-09-25T10:27:11.372Z,101241.56
2023-09-25T10:30:11.345Z,101251.09
2023-09-25T10:32:56.139Z,101256.69
2023-09-25T10:35:54.926Z,101240.28
2023-09-25T10:38:50.418Z,101232.91
2023-09-25T10:41:21.370Z,101207.63
2023-09-25T10:44:01.146Z,101244.69
2023-09-25T10:46:40.453Z,101234.69
2023-09-25T10:49:23.901Z,101240.78
2023-09-25T10:52:07.412Z,101241.41
2023-09-25T10:54:53.302Z,101242.03
2023-09-25T10:57:33.954Z,101232.03
2023-09-25T11:00:17.499Z,101235.78
2023-09-25T11:03:05.283Z,101238.59
2023-09-25T11:05:45.731Z,101240.84
2023-09-25T11:08:20.445Z,101247.75
2023-09-25T11:10:57.866Z,101239.31
2023-09-25T11:13:42.057Z,101246.72
2023-09-25T11:16:21.328Z,101244.78
2023-09-25T11:19:24.356Z,101250.13
2023-09-25T11:22:06.367Z,101247.41
2023-09-25T11:24:45.160Z,101261.22
2023-09-25T11:27:24.317Z,101254.72
2023-09-25T11:30:22.191Z,101264.34
2023-09-25T11:32:56.511Z,101264.34
2023-09-25T11:35:37.060Z,101259.56
2023-09-25T11:38:25.104Z,101265.69
2023-09-25T11:41:10.510Z,101262.69
2023-09-25T11:43:52.053Z,101268.50
2023-09-25T11:46:27.063Z,101263.53
2023-09-25T11:49:12.262Z,101254.94
2023-09-25T11:51:52.871Z,101265.47
2023-09-25T11:54:35.071Z,101253.22
2023-09-25T11:57:20.148Z,101247.97
2023-09-25T12:00:00.416Z,101249.34
2023-09-25T12:02:40.780Z,101255.06
2023-09-25T12:05:29.029Z,101250.84
2023-09-25T12:08:25.195Z,101259.66
2023-09-25T12:10:59.263Z,101255.41
2023-09-25T12:13:41.439Z,101249.34
2023-09-25T12:16:25.360Z,101246.16
2023-09-25T12:19:06.362Z,101248.56
2023-09-25T12:21:44.784Z,101248.69
2023-09-25T12:24:23.620Z,101249.41
2023-09-25T12:26:59.723Z,101246.81
2023-09-25T12:29:40.807Z,101242.38
2023-09-25T12:32:22.668Z,101248.06
2023-09-25T12:35:04.727Z,101250.06
2023-09-25T12:37:41.178Z,101229.81
2023-09-25T12:40:25.064Z,101227.59
2023-09-25T12:43:03.766Z,101247.25
2023-09-25T12:45:39.124Z,101251.81
2023-09-25T12:48:16.940Z,101248.63
2023-09-25T12:51:02.668Z,101254.19
2023-09-25T12:53:42.675Z,101242.78
2023-09-25T12:56:24.103Z,101231.50
2023-09-25T12:59:08.243Z,101248.88
2023-09-25T13:01:42.937Z,101246.13
2023-09-25T13:04:21.092Z,101239.94
2023-09-25T13:06:58.500Z,101230.31
2023-09-25T13:09:37.280Z,101242.69
2023-09-25T13:12:20.685Z,101250.56
2023-09-25T13:14:54.655Z,101250.56
2023-09-25T13:17:32.589Z,101252.84
2023-09-25T13:20:17.229Z,101255.13
2023-09-25T13:22:56.747Z,101235.94
2023-09-25T13:25:35.999Z,101252.38
2023-09-25T13:28:21.261Z,101245.88
2023-09-25T13:30:55.326Z,101246.00
2023-09-25T13:33:38.920Z,101246.78
2023-09-25T13:36:20.971Z,101257.97
2023-09-25T13:39:03.091Z,101254.53
2023-09-25T13:41:40.799Z,101257.63
2023-09-25T13:44:34.925Z,101253.63
2023-09-25T13:47:11.217Z,101246.78
2023-09-25T13:49:50.398Z,101250.44
2023-09-25T13:52:25.286Z,101254.41
2023-09-25T13:55:11.897Z,101250.06
2023-09-25T14:00:35.065Z,101256.44
2023-09-25T14:03:10.889Z,101254.28
2023-09-25T14:05:51.318Z,101259.44
2023-09-25T14:08:27.019Z,101238.72
2023-09-25T14:11:06.660Z,101255.09
2023-09-25T14:13:50.030Z,101245.94
2023-09-25T14:16:43.918Z,101243.06
2023-09-25T14:19:25.612Z,101237.59
2023-09-25T14:22:07.155Z,101231.66
2023-09-25T14:24:58.906Z,101234.75
2023-09-25T14:27:34.320Z,101228.69
2023-09-25T14:30:05.517Z,101209.28
2023-09-25T14:32:54.621Z,101217.59
2023-09-25T14:35:27.259Z,101210.97
2023-09-25T14:37:59.655Z,101217.03
2023-09-25T14:40:41.478Z,101212.34
2023-09-25T14:43:15.151Z,101208.47
2023-09-25T14:45:56.200Z,101208.38
2023-09-25T14:48:37.492Z,101207.28
2023-09-25T14:51:17.379Z,101216.78
2023-09-25T14:53:59.686Z,101208.09
2023-09-25T14:56:34.875Z,101213.25
2023-09-25T14:59:07.949Z,101215.84
2023-09-25T15:01:40.089Z,101213.31
2023-09-25T15:04:31.115Z,101213.31
2023-09-25T15:07:19.863Z,101203.50
2023-09-25T15:09:56.865Z,101201.47
2023-09-25T15:12:31.534Z,101200.19
2023-09-25T15:15:13.156Z,101209.00
2023-09-25T15:17:59.178Z,101205.81
2023-09-25T15:20:49.567Z,101204.28
2023-09-25T15:23:36.141Z,101208.94
2023-09-25T15:26:19.143Z,101205.53
2023-09-25T15:28:57.840Z,101208.16
2023-09-25T15:31:34.846Z,101211.25
2023-09-25T15:34:13.894Z,101213.50
2023-09-25T15:36:47.217Z,101208.91
2023-09-25T15:39:32.304Z,101209.34
2023-09-25T15:42:28.014Z,101214.38
2023-09-25T15:45:32.163Z,101217.00
2023-09-25T15:48:06.577Z,101221.38
2023-09-25T15:50:48.647Z,101210.16
2023-09-25T15:53:34.304Z,101216.19
2023-09-25T15:56:16.443Z,101218.31
2023-09-25T15:58:55.063Z,101204.75
2023-09-25T16:01:33.552Z,101223.09
2023-09-25T16:04:08.923Z,101221.09
2023-09-25T16:06:53.102Z,101209.16
2023-09-25T16:09:55.479Z,101218.00
2023-09-25T16:12:37.706Z,101218.69
2023-09-25T16:15:19.634Z,101213.38
2023-09-25T16:17:54.246Z,101213.53
2023-09-25T16:20:30.196Z,101216.47
2023-09-25T16:23:14.242Z,101215.06
2023-09-25T16:25:56.376Z,101214.56
2023-09-25T16:28:32.253Z,101197.63
2023-09-25T16:31:09.409Z,101208.69
2023-09-25T16:33:42.131Z,101212.06
2023-09-25T16:36:12.487Z,101218.81
2023-09-25T16:38:43.934Z,101209.56
2023-09-25T16:41:17.116Z,101213.56
2023-09-25T16:43:52.395Z,101218.22
2023-09-25T16:46:30.847Z,101214.72
2023-09-25T16:49:03.092Z,101212.66
2023-09-25T16:51:40.023Z,101201.75
2023-09-25T16:54:15.754Z,101217.31
2023-09-25T16:56:54.865Z,101223.44
2023-09-25T16:59:29.646Z,101230.66
2023-09-25T17:02:11.691Z,101223.94
2023-09-25T17:04:50.355Z,101235.50
2023-09-25T17:07:29.225Z,101236.91
2023-09-25T17:10:08.516Z,101234.34
2023-09-25T17:12:47.685Z,101241.41
2023-09-25T17:15:29.791Z,101239.34
2023-09-25T17:18:07.161Z,101240.31
2023-09-25T17:20:43.448Z,101238.41
2023-09-25T17:23:21.521Z,101233.41
2023-09-25T17:26:02.022Z,101246.91
2023-09-25T17:28:44.344Z,101252.50
2023-09-25T17:31:24.519Z,101255.56
2023-09-25T17:33:57.382Z,101263.09
2023-09-25T17:36:37.469Z,101259.06
2023-09-25T17:39:09.460Z,101256.34
2023-09-25T17:41:50.578Z,101270.31
2023-09-25T17:44:31.675Z,101268.25
2023-09-25T17:47:02.914Z,101263.09
2023-09-25T17:49:39.890Z,101255.22
2023-09-25T17:52:23.864Z,101271.94
2023-09-25T17:54:59.954Z,101271.56
2023-09-25T17:57:32.202Z,101276.72
2023-09-25T18:00:17.492Z,101260.50
2023-09-25T18:02:56.717Z,101270.28
2023-09-25T18:05:32.305Z,101276.38
2023-09-25T18:08:11.605Z,101274.13
2023-09-25T18:10:49.015Z,101270.59
2023-09-25T18:13:26.679Z,101269.47
2023-09-25T18:16:08.344Z,101269.81
2023-09-25T18:18:45.432Z,101273.97
2023-09-25T18:21:21.562Z,101277.66
2023-09-25T18:24:12.813Z,101277.03
2023-09-25T18:26:53.437Z,101277.63
2023-09-25T18:29:35.183Z,101283.09
2023-09-25T18:32:20.870Z,101275.41
2023-09-25T18:34:53.103Z,101284.22
2023-09-25T18:37:34.517Z,101269.97
2023-09-25T18:40:10.310Z,101284.41
2023-09-25T18:42:49.634Z,101281.69
2023-09-25T18:45:34.751Z,101287.59
2023-09-25T18:48:22.710Z,101279.94
2023-09-25T18:50:56.300Z,101272.84
2023-09-25T18:53:37.423Z,101291.13
2023-09-25T18:56:16.128Z,101287.78
2023-09-25T18:58:53.716Z,101295.78
2023-09-25T19:01:36.311Z,101294.66
2023-09-25T19:04:25.604Z,101296.91
2023-09-25T19:06:58.534Z,101308.16
2023-09-25T19:09:42.038Z,101296.59
2023-09-25T19:12:25.265Z,101303.31
2023-09-25T19:15:04.684Z,101305.72
2023-09-25T19:17:50.473Z,101300.75
2023-09-25T19:20:24.102Z,101304.13
2023-09-25T19:23:07.796Z,101308.75
2023-09-25T19:25:44.542Z,101307.78
2023-09-25T19:28:18.274Z,101308.44
2023-09-25T19:31:04.558Z,101307.00
2023-09-25T19:36:36.048Z,101316.91
2023-09-25T19:39:12.233Z,101312.06
2023-09-25T19:41:55.276Z,101313.50
2023-09-25T19:44:38.595Z,101302.06
2023-09-25T19:47:14.582Z,101310.44
2023-09-25T19:49:50.852Z,101319.22
2023-09-25T19:52:37.534Z,101319.56
2023-09-25T19:55:17.203Z,101329.94
2023-09-25T19:57:52.995Z,101324.03
2023-09-25T20:00:31.305Z,101326.25
2023-09-25T20:03:13.945Z,101334.44
2023-09-25T20:05:53.774Z,101324.66
2023-09-25T20:08:38.065Z,101328.16
2023-09-25T20:11:27.664Z,101319.19
2023-09-25T20:14:08.620Z,101310.56
2023-09-25T20:16:48.419Z,101329.91
2023-09-25T20:19:28.054Z,101321.88
2023-09-25T20:22:08.144Z,101332.00
2023-09-25T20:24:58.425Z,101327.50
2023-09-25T20:27:32.272Z,101327.78
2023-09-25T20:30:03.004Z,101325.19
2023-09-25T20:32:45.918Z,101316.88
2023-09-25T20:35:28.521Z,101308.34
2023-09-25T20:38:04.072Z,101325.66
2023-09-25T20:40:53.246Z,101314.59
2023-09-25T20:43:28.425Z,101318.13
2023-09-25T20:46:06.065Z,101321.16
2023-09-25T20:48:41.588Z,101307.19
2023-09-25T20:51:26.061Z,101311.50
2023-09-25T20:54:07.777Z,101307.97
2023-09-25T20:56:45.709Z,101306.22
2023-09-25T20:59:17.025Z,101292.84
2023-09-25T21:01:56.749Z,101303.50
2023-09-25T21:04:29.056Z,101302.34
2023-09-25T21:07:02.071Z,101301.53
2023-09-25T21:09:41.691Z,101295.94
2023-09-25T21:12:19.258Z,101300.56
2023-09-25T21:15:03.148Z,101299.16
2023-09-25T21:17:39.834Z,101298.81
2023-09-25T21:20:28.701Z,101298.34
2023-09-25T21:23:06.402Z,101303.78
2023-09-25T21:25:37.224Z,101310.03
2023-09-25T21:28:23.402Z,101317.69
2023-09-25T21:31:05.906Z,101321.34
2023-09-25T21:33:45.301Z,101322.00
2023-09-25T21:36:28.592Z,101331.06
2023-09-25T21:39:12.941Z,101309.94
2023-09-25T21:41:49.814Z,101315.97
2023-09-25T21:44:33.277Z,101312.22
2023-09-25T21:47:08.698Z,101319.44
2023-09-25T21:49:43.648Z,101313.03
2023-09-25T21:52:24.231Z,101305.16
2023-09-25T21:54:57.492Z,101279.28
2023-09-25T21:57:34.069Z,101300.81
2023-09-25T22:00:18.968Z,101303.84
2023-09-25T22:02:52.154Z,101301.13
2023-09-25T22:05:27.654Z,101310.91
2023-09-25T22:08:10.471Z,101303.84
2023-09-25T22:10:50.142Z,101301.13
2023-09-25T22:13:33.759Z,101305.34
2023-09-25T22:16:26.789Z,101306.44
2023-09-25T22:19:07.341Z,101309.28
2023-09-25T22:21:51.225Z,101314.44
2023-09-25T22:24:31.574Z,101311.41
2023-09-25T22:27:12.062Z,101308.50
2023-09-25T22:29:56.086Z,101308.81
2023-09-25T22:32:50.073Z,101315.16
2023-09-25T22:35:35.271Z,101309.72
2023-09-25T22:38:15.212Z,101307.81
2023-09-25T22:41:04.513Z,101291.44
2023-09-25T22:43:48.044Z,101306.84
2023-09-25T22:46:20.534Z,101302.50
2023-09-25T22:49:06.626Z,101291.72
2023-09-25T22:51:46.128Z,101300.59
2023-09-25T22:54:27.638Z,101302.81
2023-09-25T22:57:06.823Z,101298.97
2023-09-25T22:59:45.049Z,101302.81
2023-09-25T23:02:33.037Z,101305.03
2023-09-25T23:05:19.670Z,101288.53
2023-09-25T23:07:54.284Z,101307.75
2023-09-25T23:10:28.659Z,101304.22
2023-09-25T23:13:10.725Z,101299.41
2023-09-25T23:15:52.771Z,101306.47
2023-09-25T23:18:33.638Z,101298.31
2023-09-25T23:21:27.049Z,101293.63
2023-09-25T23:23:57.717Z,101299.34
2023-09-25T23:26:38.512Z,101289.56
2023-09-25T23:29:19.578Z,101290.19
2023-09-25T23:32:01.483Z,101294.47
2023-09-25T23:34:44.518Z,101291.34
2023-09-25T23:37:34.244Z,101297.28
2023-09-25T23:40:17.681Z,101305.56
2023-09-25T23:42:59.133Z,101302.13
2023-09-25T23:45:42.212Z,101295.31
2023-09-25T23:48:29.365Z,101301.03
2023-09-25T23:51:07.648Z,101306.19
2023-09-25T23:53:50.988Z,101304.56
2023-09-25T23:56:29.329Z,101302.13
2023-09-25T23:59:08.621Z,101294.41
